Time;durP1;ratioP1;P1;durP2;ratioP2;P2;SDS_P1;SDS_P2;PMS_P1;PMS_P2;Temp;Humidity;BMP_temperature;BMP_pressure;BME280_temperature;BME280_humidity;BME280_pressure;Samples;Min_cycle;Max_cycle;Signal;HPM_P1;HPM_P2
2022/05/01 00:00:52;;;;;;;11.27;9.05;;;7.60;99.90;;;;;;5012698;28;20076;-66
2022/05/01 00:03:31;;;;;;;10.32;9.18;;;7.60;99.90;;;;;;5014073;28;20040;-65
2022/05/01 00:06:00;;;;;;;10.32;7.95;;;7.60;99.90;;;;;;5011368;28;20762;-66
2022/05/01 00:08:27;;;;;;;10.40;7.90;;;7.60;99.90;;;;;;4993296;28;20045;-65
2022/05/01 00:10:55;;;;;;;11.75;7.75;;;7.70;99.90;;;;;;4994883;28;20053;-66
2022/05/01 00:13:43;;;;;;;10.07;8.65;;;7.60;99.90;;;;;;5011640;28;20034;-66
2022/05/01 00:16:11;;;;;;;15.18;10.52;;;7.60;99.90;;;;;;5021272;28;20044;-66
2022/05/01 00:18:38;;;;;;;18.73;12.20;;;7.60;99.90;;;;;;5032482;28;20044;-66
2022/05/01 00:21:05;;;;;;;;;;;7.60;99.90;;;;;;5034191;28;20041;-65
2022/05/01 00:23:32;;;;;;;15.60;11.93;;;7.50;99.90;;;;;;5034078;28;19929;-66
2022/05/01 00:26:00;;;;;;;15.40;12.13;;;7.50;99.90;;;;;;5034053;28;20045;-66
2022/05/01 00:28:28;;;;;;;19.40;12.98;;;7.50;99.90;;;;;;5009538;28;20119;-66
2022/05/01 00:30:56;;;;;;;16.30;12.68;;;7.50;99.90;;;;;;4992296;28;20269;-66
2022/05/01 00:36:28;;;;;;;15.13;12.32;;;7.40;99.90;;;;;;4994258;28;20059;-66
2022/05/01 00:38:57;;;;;;;17.92;13.13;;;7.30;99.90;;;;;;4994050;28;20706;-66
2022/05/01 00:41:26;;;;;;;17.33;12.52;;;7.40;99.90;;;;;;5013161;28;20050;-65
2022/05/01 00:44:05;;;;;;;16.92;13.52;;;7.30;99.90;;;;;;5017252;28;20115;-66
2022/05/01 00:46:34;;;;;;;18.08;12.25;;;7.30;99.90;;;;;;5016278;28;20049;-66
2022/05/01 00:49:02;;;;;;;21.27;14.55;;;7.30;99.90;;;;;;5015608;28;20048;-66
2022/05/01 00:51:31;;;;;;;16.75;12.82;;;7.30;99.90;;;;;;5017068;28;20140;-66
2022/05/01 00:53:58;;;;;;;17.25;13.18;;;7.20;99.90;;;;;;5017370;28;20486;-66
2022/05/01 00:56:28;;;;;;;18.20;13.05;;;7.20;99.90;;;;;;5016072;28;20053;-67
2022/05/01 00:58:54;;;;;;;16.63;11.95;;;7.20;99.90;;;;;;5016366;28;20079;-66
2022/05/01 01:01:22;;;;;;;14.20;11.75;;;7.20;99.90;;;;;;5016400;28;20566;-66
2022/05/01 01:03:51;;;;;;;15.25;11.98;;;7.20;99.90;;;;;;5016886;28;20045;-66
2022/05/01 01:06:18;;;;;;;14.57;10.73;;;7.20;99.90;;;;;;5013310;28;20073;-66
2022/05/01 01:08:45;;;;;;;;;;;7.20;99.90;;;;;;4996899;28;20038;-65
2022/05/01 01:11:12;;;;;;;17.55;10.70;;;7.20;99.90;;;;;;5000735;28;19921;-66
2022/05/01 01:13:39;;;;;;;14.57;10.70;;;7.20;99.90;;;;;;5017108;28;20058;-66
2022/05/01 01:16:09;;;;;;;13.93;10.07;;;7.20;99.90;;;;;;5021786;28;20045;-66
2022/05/01 01:18:39;;;;;;;13.32;10.77;;;7.30;99.90;;;;;;5015082;28;20045;-66
2022/05/01 01:21:10;;;;;;;15.05;11.82;;;7.30;99.90;;;;;;5016602;28;20041;-66
2022/05/01 01:23:41;;;;;;;17.83;11.90;;;7.30;99.90;;;;;;5016683;28;20660;-66
2022/05/01 01:26:09;;;;;;;13.38;10.50;;;7.30;99.90;;;;;;5016767;28;20053;-66
2022/05/01 01:28:38;;;;;;;14.13;11.27;;;7.40;99.90;;;;;;5005987;28;20124;-66
2022/05/01 01:33:55;;;;;;;17.20;11.40;;;7.40;99.90;;;;;;4996353;28;20056;-65
2022/05/01 01:36:25;;;;;;;13.18;10.75;;;7.40;99.90;;;;;;4996820;28;20053;-66
2022/05/01 01:38:52;;;;;;;13.73;10.75;;;7.50;99.90;;;;;;4996207;28;21075;-66
2022/05/01 01:41:22;;;;;;;13.65;10.02;;;7.50;99.90;;;;;;5010723;28;20045;-66
2022/05/01 01:43:49;;;;;;;12.82;9.55;;;7.50;99.90;;;;;;5016110;28;20048;-66
2022/05/01 01:46:17;;;;;;;14.30;9.98;;;7.50;99.90;;;;;;5015728;28;20069;-66
2022/05/01 01:48:45;;;;;;;15.02;11.27;;;7.50;99.90;;;;;;5015079;28;20045;-66
2022/05/01 01:51:12;;;;;;;13.85;10.90;;;7.50;99.90;;;;;;5015487;28;20544;-66
2022/05/01 01:53:40;;;;;;;12.80;10.25;;;7.50;99.90;;;;;;5016398;28;20049;-65
2022/05/01 01:56:08;;;;;;;12.63;10.35;;;7.50;99.90;;;;;;5015766;28;20730;-66
2022/05/01 01:58:36;;;;;;;12.48;8.57;;;7.50;99.90;;;;;;5015029;28;20136;-66
2022/05/01 02:01:05;;;;;;;11.45;10.25;;;7.50;99.90;;;;;;5015980;28;20321;-65
2022/05/01 02:03:36;;;;;;;12.35;10.27;;;7.50;99.90;;;;;;5015606;28;20103;-65
2022/05/01 02:06:04;;;;;;;11.98;9.38;;;7.50;99.90;;;;;;5014124;28;20049;-66
2022/05/01 02:08:34;;;;;;;12.45;10.02;;;7.50;99.90;;;;;;4995035;28;20049;-66
2022/05/01 02:11:04;;;;;;;14.30;9.57;;;7.50;99.90;;;;;;4998253;28;20050;-66
2022/05/01 02:13:34;;;;;;;12.25;9.65;;;7.50;99.90;;;;;;5015733;28;20053;-66
2022/05/01 02:16:02;;;;;;;15.48;11.77;;;7.50;99.90;;;;;;5011554;28;20053;-65
2022/05/01 02:18:29;;;;;;;13.80;10.55;;;7.50;99.90;;;;;;5010578;28;20107;-66
2022/05/01 02:23:40;;;;;;;16.55;12.13;;;7.50;99.90;;;;;;5016362;28;19925;-66
2022/05/01 02:26:07;;;;;;;;;;;7.50;99.90;;;;;;5015735;28;20709;-66
2022/05/01 02:28:34;;;;;;;13.98;10.82;;;7.60;99.90;;;;;;5005552;28;20716;-66
2022/05/01 02:31:01;;;;;;;;;;;7.60;99.90;;;;;;4996076;28;20064;-66
2022/05/01 02:33:27;;;;;;;16.30;12.25;;;7.60;99.90;;;;;;4995668;28;20344;-66
2022/05/01 02:35:54;;;;;;;16.65;11.55;;;7.60;99.90;;;;;;4995215;28;20057;-66
2022/05/01 02:38:21;;;;;;;12.45;10.60;;;7.60;99.90;;;;;;4994909;28;20053;-65
2022/05/01 02:40:48;;;;;;;13.88;9.77;;;7.60;99.90;;;;;;5006026;28;20049;-66
2022/05/01 02:43:14;;;;;;;;;;;7.60;99.90;;;;;;5015449;28;20045;-66
2022/05/01 02:45:41;;;;;;;14.57;10.55;;;7.60;99.90;;;;;;5015269;28;19921;-65
2022/05/01 02:48:08;;;;;;;14.57;11.23;;;7.60;99.90;;;;;;5013545;28;20069;-66
2022/05/01 02:50:36;;;;;;;15.35;11.15;;;7.50;99.90;;;;;;5015038;28;20550;-65
2022/05/01 02:53:04;;;;;;;15.40;11.30;;;7.50;99.90;;;;;;5014872;28;20050;-65
2022/05/01 02:55:32;;;;;;;12.48;10.05;;;7.40;99.90;;;;;;5014774;28;20557;-66
2022/05/01 02:57:59;;;;;;;17.00;11.90;;;7.40;99.90;;;;;;5014120;28;20110;-66
2022/05/01 03:00:26;;;;;;;17.13;11.35;;;7.30;99.90;;;;;;5014401;28;20044;-65
2022/05/01 03:02:55;;;;;;;16.30;12.48;;;7.30;99.90;;;;;;5013484;28;20747;-66
2022/05/01 03:05:26;;;;;;;16.02;11.27;;;7.30;99.90;;;;;;5014422;28;20045;-66
2022/05/01 03:07:56;;;;;;;12.68;8.80;;;7.20;99.90;;;;;;4997756;28;20048;-66
2022/05/01 03:10:23;;;;;;;17.70;11.10;;;7.20;99.90;;;;;;4994085;28;20136;-67
2022/05/01 03:12:51;;;;;;;13.75;9.77;;;7.20;99.90;;;;;;5011402;28;20092;-66
2022/05/01 03:15:17;;;;;;;12.88;10.23;;;7.20;99.90;;;;;;5011065;28;20279;-66
2022/05/01 03:23:15;;;;;;;16.10;12.00;;;7.10;99.90;;;;;;5034097;28;20067;-66
2022/05/01 03:25:42;;;;;;;15.93;11.15;;;7.10;99.90;;;;;;5033033;28;20048;-66
2022/05/01 03:28:08;;;;;;;;;;;7.10;99.90;;;;;;5016770;28;20104;-66
2022/05/01 03:30:35;;;;;;;14.45;10.85;;;7.10;99.90;;;;;;4994422;28;19925;-66
2022/05/01 03:33:05;;;;;;;;;;;7.10;99.90;;;;;;4994758;28;20077;-66
2022/05/01 03:35:36;;;;;;;18.17;10.98;;;7.10;99.90;;;;;;4995176;28;19925;-66
2022/05/01 03:38:04;;;;;;;18.20;9.73;;;7.10;99.90;;;;;;4994149;28;20705;-66
2022/05/01 03:40:33;;;;;;;14.18;10.68;;;7.10;99.90;;;;;;5002882;28;20148;-66
2022/05/01 03:42:59;;;;;;;12.00;9.50;;;7.10;99.90;;;;;;5012606;28;20041;-66
2022/05/01 03:45:26;;;;;;;12.48;9.68;;;7.10;99.90;;;;;;5012521;28;20637;-66
2022/05/01 03:47:53;;;;;;;;;;;7.10;99.90;;;;;;5013697;28;20846;-66
2022/05/01 03:50:20;;;;;;;13.43;10.05;;;7.20;99.90;;;;;;5013788;28;19936;-66
2022/05/01 03:52:47;;;;;;;14.85;11.02;;;7.20;99.90;;;;;;5014496;28;20198;-66
2022/05/01 03:55:14;;;;;;;;;;;7.20;99.90;;;;;;5014233;28;20066;-66
2022/05/01 03:57:40;;;;;;;18.48;12.00;;;7.20;99.90;;;;;;5013272;28;19925;-66
2022/05/01 04:00:11;;;;;;;16.27;11.65;;;7.20;99.90;;;;;;5014368;28;20049;-66
2022/05/01 04:02:42;;;;;;;16.05;11.68;;;7.20;99.90;;;;;;5013653;28;20630;-66
2022/05/01 04:05:11;;;;;;;19.27;11.82;;;7.20;99.90;;;;;;5014655;28;20107;-66
2022/05/01 04:07:39;;;;;;;11.93;9.55;;;7.20;99.90;;;;;;4997310;28;20046;-67
2022/05/01 04:10:07;;;;;;;16.00;12.00;;;7.30;99.90;;;;;;4992709;28;20427;-66
2022/05/01 04:12:42;;;;;;;17.17;12.60;;;7.30;99.90;;;;;;5010104;28;20057;-66
2022/05/01 04:15:11;;;;;;;16.17;12.85;;;7.30;99.90;;;;;;5017794;28;20055;-66
2022/05/01 04:17:40;;;;;;;14.85;11.68;;;7.30;99.90;;;;;;5011923;28;20041;-66
2022/05/01 04:20:10;;;;;;;17.48;12.43;;;7.30;99.90;;;;;;5021872;28;20095;-66
2022/05/01 04:22:38;;;;;;;17.77;13.55;;;7.30;99.90;;;;;;5036749;28;20037;-66
2022/05/01 04:25:18;;;;;;;19.42;12.60;;;7.30;99.90;;;;;;5038386;28;20041;-66
2022/05/01 04:27:47;;;;;;;16.08;12.35;;;7.40;99.90;;;;;;5026946;28;20247;-66
2022/05/01 04:30:15;;;;;;;19.02;14.02;;;7.30;99.90;;;;;;4998364;28;20112;-66
2022/05/01 04:33:10;;;;;;;19.60;13.05;;;7.40;99.90;;;;;;4999108;28;20136;-66
2022/05/01 04:35:48;;;;;;;15.82;12.23;;;7.40;99.90;;;;;;4998983;28;20432;-66
2022/05/01 04:38:21;;;;;;;17.65;13.57;;;7.40;99.90;;;;;;4999328;28;20050;-66
2022/05/01 04:40:53;;;;;;;17.48;13.07;;;7.40;99.90;;;;;;5017335;28;20706;-66
2022/05/01 04:43:22;;;;;;;17.20;12.82;;;7.50;99.90;;;;;;5019036;28;20074;-66
2022/05/01 04:45:54;;;;;;;16.58;12.70;;;7.50;99.90;;;;;;5017730;28;20048;-66
2022/05/01 04:48:23;;;;;;;15.95;12.80;;;7.50;99.90;;;;;;5017213;28;20065;-66
2022/05/01 04:50:51;;;;;;;20.33;14.25;;;7.60;99.90;;;;;;5017903;28;20045;-66
2022/05/01 04:53:19;;;;;;;16.45;12.98;;;7.60;99.90;;;;;;5016870;28;20037;-65
2022/05/01 04:55:48;;;;;;;17.50;13.18;;;7.60;99.90;;;;;;5017802;28;20080;-66
2022/05/01 04:58:16;;;;;;;19.40;13.25;;;7.60;99.90;;;;;;5014973;28;20041;-48
2022/05/01 05:00:43;;;;;;;17.50;13.73;;;7.60;99.90;;;;;;5016791;28;20080;-49
2022/05/01 05:03:10;;;;;;;16.55;12.10;;;7.70;99.90;;;;;;5016664;28;20125;-48
2022/05/01 05:05:38;;;;;;;25.70;19.42;;;7.70;99.90;;;;;;5017515;28;20041;-49
2022/05/01 05:10:51;;;;;;;28.95;20.20;;;7.80;99.90;;;;;;4997967;28;20464;-48
2022/05/01 05:13:27;;;;;;;27.10;19.40;;;7.80;99.90;;;;;;5015609;28;20053;-49
2022/05/01 05:15:59;;;;;;;25.80;18.38;;;7.80;99.90;;;;;;5009945;28;20045;-48
2022/05/01 05:18:27;;;;;;;28.35;20.08;;;7.90;99.90;;;;;;5015874;28;20053;-50
2022/05/01 05:20:54;;;;;;;31.20;22.42;;;7.90;99.90;;;;;;5016951;28;20045;-49
2022/05/01 05:23:21;;;;;;;27.13;19.70;;;7.90;99.90;;;;;;5017080;28;20073;-49
2022/05/01 05:25:48;;;;;;;;;;;8.00;99.90;;;;;;5016094;28;20038;-49
2022/05/01 05:28:14;;;;;;;38.08;26.88;;;8.10;99.90;;;;;;5008976;28;19975;-54
2022/05/01 05:30:41;;;;;;;47.50;31.13;;;8.10;99.90;;;;;;4996613;28;20058;-54
2022/05/01 05:33:08;;;;;;;;;;;8.10;99.90;;;;;;4997167;28;20042;-55
2022/05/01 05:35:36;;;;;;;45.70;31.67;;;8.20;99.90;;;;;;4997261;28;19921;-54
2022/05/01 05:38:02;;;;;;;42.05;29.63;;;8.30;99.90;;;;;;4995237;28;20050;-54
2022/05/01 05:40:29;;;;;;;49.90;34.47;;;8.30;99.90;;;;;;5005279;28;20049;-54
2022/05/01 05:42:56;;;;;;;;;;;8.40;99.90;;;;;;5016695;28;20450;-53
2022/05/01 05:45:23;;;;;;;42.92;30.02;;;8.40;99.90;;;;;;5016396;28;19925;-54
2022/05/01 05:47:50;;;;;;;45.65;33.00;;;8.50;99.90;;;;;;5015108;28;20591;-54
2022/05/01 05:50:17;;;;;;;43.00;30.88;;;8.50;99.90;;;;;;5016092;28;20700;-55
2022/05/01 05:52:45;;;;;;;50.78;30.20;;;8.50;99.90;;;;;;5016415;28;20050;-55
2022/05/01 05:55:11;;;;;;;39.53;27.70;;;8.50;99.90;;;;;;5016028;28;20667;-55
2022/05/01 05:57:38;;;;;;;;;;;8.50;99.90;;;;;;5016188;28;20652;-54
2022/05/01 06:00:06;;;;;;;36.47;26.23;;;8.50;99.90;;;;;;5015671;28;19925;-55
2022/05/01 06:02:40;;;;;;;39.00;26.80;;;8.60;99.90;;;;;;5016147;28;20045;-55
2022/05/01 06:05:08;;;;;;;35.85;24.25;;;8.60;99.90;;;;;;5015836;28;20095;-55
2022/05/01 06:07:36;;;;;;;33.05;22.20;;;8.60;99.90;;;;;;5001613;28;20632;-55
2022/05/01 06:10:03;;;;;;;31.05;22.45;;;8.60;99.90;;;;;;4995677;28;20041;-56
2022/05/01 06:12:30;;;;;;;30.92;23.50;;;8.70;99.90;;;;;;5010575;28;20049;-54
2022/05/01 06:14:56;;;;;;;34.08;24.70;;;8.70;99.90;;;;;;5015948;28;20064;-55
2022/05/01 06:17:23;;;;;;;37.08;24.33;;;8.80;99.90;;;;;;5006506;28;20613;-55
2022/05/01 06:19:50;;;;;;;;;;;8.90;99.90;;;;;;5014774;28;20591;-54
2022/05/01 06:22:17;;;;;;;33.08;23.58;;;8.90;99.90;;;;;;5020815;28;19921;-55
2022/05/01 06:24:43;;;;;;;29.48;20.35;;;9.00;99.90;;;;;;5015878;28;20045;-55
2022/05/01 06:27:10;;;;;;;;;;;9.10;99.90;;;;;;5015073;28;20037;-56
2022/05/01 06:29:37;;;;;;;33.78;23.90;;;9.10;99.90;;;;;;4997077;28;19947;-53
2022/05/01 06:32:04;;;;;;;34.33;25.05;;;9.30;99.90;;;;;;4996121;28;20469;-54
2022/05/01 06:34:31;;;;;;;35.28;22.30;;;9.40;99.90;;;;;;4995757;28;20057;-56
2022/05/01 06:36:58;;;;;;;;;;;9.50;99.90;;;;;;4993278;28;20049;-55
2022/05/01 06:39:25;;;;;;;29.73;21.92;;;9.50;99.90;;;;;;4995034;28;19983;-56
2022/05/01 06:41:52;;;;;;;;;;;9.50;99.90;;;;;;4996024;28;20038;-55
2022/05/01 06:44:19;;;;;;;32.45;21.90;;;9.60;99.90;;;;;;4993537;28;19936;-54
2022/05/01 06:46:46;;;;;;;;;;;9.60;99.90;;;;;;4995073;28;20042;-52
2022/05/01 06:49:13;;;;;;;29.38;21.13;;;9.60;99.90;;;;;;4994970;28;20818;-56
2022/05/01 06:51:40;;;;;;;27.63;21.05;;;9.70;99.90;;;;;;4994624;28;20049;-54
2022/05/01 06:54:08;;;;;;;;;;;9.70;99.90;;;;;;4996525;28;20704;-56
2022/05/01 06:56:35;;;;;;;28.48;19.67;;;9.80;99.90;;;;;;4994495;28;19925;-56
2022/05/01 06:59:02;;;;;;;29.92;21.13;;;9.90;99.90;;;;;;4994883;28;20041;-54
2022/05/01 07:01:29;;;;;;;27.13;20.98;;;10.00;99.90;;;;;;4994663;28;20925;-55
2022/05/01 07:03:56;;;;;;;28.38;21.30;;;10.10;99.90;;;;;;4994300;28;20805;-55
2022/05/01 07:06:23;;;;;;;;;;;10.10;99.90;;;;;;4998443;28;20045;-56
2022/05/01 07:08:50;;;;;;;25.92;18.25;;;10.20;99.90;;;;;;5013437;28;20342;-55
2022/05/01 07:11:16;;;;;;;;;;;10.40;99.90;;;;;;5008576;28;20599;-53
2022/05/01 07:13:43;;;;;;;26.23;18.30;;;10.50;99.90;;;;;;4994622;28;19936;-56
2022/05/01 07:16:10;;;;;;;23.33;17.98;;;10.60;99.90;;;;;;5001058;28;20045;-54
2022/05/01 07:18:37;;;;;;;;;;;10.70;99.90;;;;;;4994671;28;20050;-52
2022/05/01 07:21:04;;;;;;;23.67;16.05;;;10.80;99.90;;;;;;4998159;28;19925;-56
2022/05/01 07:23:31;;;;;;;;;;;10.90;99.90;;;;;;5019335;28;20048;-56
2022/05/01 07:25:57;;;;;;;16.77;9.68;;;11.00;99.90;;;;;;5034582;28;20337;-54
2022/05/01 07:28:25;;;;;;;;;;;11.10;99.90;;;;;;5012593;28;20038;-55
2022/05/01 07:30:52;;;;;;;12.93;11.00;;;11.20;99.90;;;;;;4994201;28;20710;-54
2022/05/01 07:33:18;;;;;;;;;;;11.30;99.90;;;;;;4995387;28;20050;-48
2022/05/01 07:35:46;;;;;;;11.13;8.88;;;11.40;99.90;;;;;;4994585;28;19965;-47
2022/05/01 07:40:27;;;;;;;11.57;9.40;;;11.50;99.90;;;;;;5072131;27;1227326;-54
2022/05/01 07:42:54;;;;;;;20.42;10.93;;;11.50;99.90;;;;;;5090825;28;20431;-56
2022/05/01 07:45:20;;;;;;;16.13;11.80;;;11.50;99.90;;;;;;5072539;28;20820;-54
2022/05/01 07:47:54;;;;;;;15.57;11.82;;;11.40;99.90;;;;;;5069532;28;20095;-54
2022/05/01 07:50:20;;;;;;;12.70;10.57;;;11.30;99.90;;;;;;5070732;28;20052;-54
2022/05/01 07:52:47;;;;;;;13.70;10.40;;;11.40;99.90;;;;;;5070918;28;20762;-55
2022/05/01 07:55:14;;;;;;;19.50;14.38;;;11.70;99.90;;;;;;5071132;28;20118;-52
2022/05/01 07:57:41;;;;;;;;;;;12.40;99.90;;;;;;5070547;28;20055;-56
2022/05/01 08:00:09;;;;;;;21.73;15.60;;;13.20;99.90;;;;;;5070776;28;19931;-53
2022/05/01 08:05:24;;;;;;;;;;;14.30;99.90;;;;;;5019881;28;20060;-54
2022/05/01 08:07:52;;;;;;;21.10;13.70;;;14.70;99.90;;;;;;5054155;28;19942;-54
2022/05/01 08:10:20;;;;;;;16.27;12.05;;;15.00;99.90;;;;;;5049779;28;20041;-56
2022/05/01 08:12:47;;;;;;;18.10;12.70;;;15.20;99.90;;;;;;5067222;28;20070;-55
2022/05/01 08:15:17;;;;;;;17.40;13.27;;;15.40;99.90;;;;;;5068325;28;20044;-53
2022/05/01 08:17:45;;;;;;;15.85;11.68;;;15.70;99.90;;;;;;5065731;28;20048;-55
2022/05/01 08:23:08;;;;;;;18.00;10.48;;;16.00;99.90;;;;;;5062913;28;20044;-55
2022/05/01 08:25:35;;;;;;;;;;;16.20;99.90;;;;;;5032484;28;20119;-53
2022/05/01 08:28:02;;;;;;;12.57;8.48;;;16.40;99.90;;;;;;5054344;28;19924;-55
2022/05/01 08:30:29;;;;;;;9.38;8.20;;;16.50;99.90;;;;;;5049618;28;20045;-55
2022/05/01 08:32:57;;;;;;;10.68;8.45;;;16.40;99.90;;;;;;5049701;28;20063;-55
2022/05/01 08:35:24;;;;;;;12.40;8.82;;;16.50;99.90;;;;;;5031699;28;20375;-55
2022/05/01 08:37:50;;;;;;;;;;;16.70;99.90;;;;;;5049439;28;20045;-54
2022/05/01 08:40:18;;;;;;;11.95;8.75;;;16.90;99.90;;;;;;5056638;28;20022;-52
2022/05/01 08:42:46;;;;;;;11.80;9.18;;;17.00;99.90;;;;;;5069136;28;20040;-53
2022/05/01 08:45:14;;;;;;;11.77;10.38;;;17.10;99.90;;;;;;5070590;28;20047;-56
2022/05/01 08:48:08;;;;;;;13.90;9.70;;;17.30;99.90;;;;;;5050782;28;20059;-53
2022/05/01 08:50:36;;;;;;;12.27;8.73;;;17.50;99.90;;;;;;5063167;28;20043;-56
2022/05/01 08:53:04;;;;;;;12.75;9.68;;;17.50;99.10;;;;;;5056266;28;20045;-55
2022/05/01 08:55:32;;;;;;;14.25;10.18;;;17.50;99.90;;;;;;5056724;28;20098;-57
2022/05/01 08:58:00;;;;;;;10.40;7.80;;;17.40;99.90;;;;;;5037010;28;20040;-54
2022/05/01 09:00:27;;;;;;;12.00;8.73;;;17.40;99.90;;;;;;5055540;28;20052;-55
2022/05/01 09:02:54;;;;;;;9.95;7.63;;;17.70;99.90;;;;;;5055935;28;20503;-55
2022/05/01 09:05:21;;;;;;;12.02;8.35;;;17.90;98.40;;;;;;5055834;28;20731;-56
2022/05/01 09:07:48;;;;;;;;;;;18.00;99.50;;;;;;5040690;28;20053;-54
2022/05/01 09:10:16;;;;;;;15.93;10.98;;;17.90;99.80;;;;;;5036068;28;19947;-53
2022/05/01 09:12:53;;;;;;;17.35;12.73;;;17.60;99.90;;;;;;5052234;28;20149;-55
2022/05/01 09:15:27;;;;;;;13.27;11.32;;;17.30;99.10;;;;;;5053185;28;20659;-53
2022/05/01 09:18:03;;;;;;;11.88;9.82;;;16.80;99.90;;;;;;5052713;28;20036;-53
2022/05/01 09:20:36;;;;;;;11.98;9.20;;;16.40;99.90;;;;;;5055481;28;20733;-54
2022/05/01 09:23:05;;;;;;;12.90;11.23;;;16.10;99.90;;;;;;5054434;28;20694;-56
2022/05/01 09:25:32;;;;;;;18.50;11.43;;;15.90;99.90;;;;;;5034652;28;20048;-52
2022/05/01 09:28:18;;;;;;;12.35;9.63;;;15.60;99.90;;;;;;5039864;28;20065;-55
2022/05/01 09:30:46;;;;;;;12.57;9.88;;;15.30;99.90;;;;;;5017950;28;20053;-56
2022/05/01 09:33:16;;;;;;;;;;;15.10;99.90;;;;;;5036105;28;20130;-56
2022/05/01 09:35:43;;;;;;;12.63;10.98;;;14.90;99.90;;;;;;5035085;28;19929;-56
2022/05/01 09:38:16;;;;;;;;;;;14.70;99.90;;;;;;5035389;28;20565;-55
2022/05/01 09:40:44;;;;;;;13.63;10.88;;;14.50;99.90;;;;;;5046346;28;20390;-56
2022/05/01 09:43:41;;;;;;;18.08;13.27;;;14.30;99.90;;;;;;5054926;28;20041;-53
2022/05/01 09:46:19;;;;;;;13.52;9.93;;;14.10;99.90;;;;;;5055631;28;20045;-55
2022/05/01 09:49:00;;;;;;;16.88;12.25;;;13.90;99.90;;;;;;5036214;28;20044;-56
2022/05/01 09:51:32;;;;;;;15.45;11.95;;;13.80;99.90;;;;;;5055829;28;20607;-55
2022/05/01 09:54:04;;;;;;;14.40;11.23;;;13.60;99.90;;;;;;5055651;28;20721;-56
2022/05/01 09:56:51;;;;;;;12.73;10.57;;;13.50;99.90;;;;;;5054739;28;20881;-55
2022/05/01 09:59:20;;;;;;;15.87;11.77;;;13.50;99.90;;;;;;5055486;28;20053;-54
2022/05/01 10:02:03;;;;;;;11.77;9.77;;;13.50;99.90;;;;;;5036360;28;20040;-60
2022/05/01 10:04:35;;;;;;;15.15;11.75;;;13.50;99.90;;;;;;5054873;28;20040;-60
2022/05/01 10:07:03;;;;;;;15.63;12.07;;;13.50;99.90;;;;;;5044576;28;20095;-58
2022/05/01 10:09:32;;;;;;;16.45;12.15;;;13.50;99.90;;;;;;5035627;28;20722;-58
2022/05/01 10:12:04;;;;;;;13.68;11.32;;;13.40;99.90;;;;;;5044527;28;20041;-58
2022/05/01 10:14:32;;;;;;;18.63;12.23;;;13.30;99.90;;;;;;5037289;28;20052;-60
2022/05/01 10:17:00;;;;;;;15.85;11.90;;;13.30;99.90;;;;;;5047601;28;20139;-56
2022/05/01 10:19:27;;;;;;;13.75;11.80;;;13.20;99.90;;;;;;5054261;28;20494;-57
2022/05/01 10:22:00;;;;;;;14.00;10.85;;;13.20;99.90;;;;;;5055004;28;20048;-59
2022/05/01 10:24:33;;;;;;;13.38;11.13;;;13.20;99.90;;;;;;5049362;28;20045;-57
2022/05/01 10:27:14;;;;;;;13.63;10.18;;;13.10;99.90;;;;;;5034253;28;20051;-58
2022/05/01 10:33:32;;;;;;;14.88;12.75;;;13.20;99.90;;;;;;5019456;28;20053;-57
2022/05/01 10:36:21;;;;;;;13.32;10.98;;;13.30;99.90;;;;;;5035067;28;20052;-58
2022/05/01 10:39:03;;;;;;;12.75;11.02;;;13.40;99.90;;;;;;5033464;28;20049;-59
2022/05/01 10:41:32;;;;;;;14.68;11.82;;;13.50;99.90;;;;;;5051237;28;20866;-58
2022/05/01 10:44:01;;;;;;;15.38;12.40;;;13.80;99.90;;;;;;5054839;28;20044;-59
2022/05/01 10:46:30;;;;;;;19.92;12.70;;;14.10;99.90;;;;;;5054384;28;20045;-58
2022/05/01 10:49:03;;;;;;;14.88;11.07;;;14.40;99.90;;;;;;5053893;28;20052;-58
2022/05/01 10:51:38;;;;;;;18.95;13.32;;;14.60;99.90;;;;;;5054605;28;20037;-60
2022/05/01 10:54:17;;;;;;;15.88;12.07;;;14.80;99.90;;;;;;5054567;28;20041;-59
2022/05/01 10:56:49;;;;;;;16.10;12.13;;;14.70;99.90;;;;;;5053203;28;20406;-59
2022/05/01 10:59:47;;;;;;;18.17;12.23;;;14.70;99.90;;;;;;5053882;28;20048;-59
2022/05/01 11:02:35;;;;;;;13.90;11.23;;;14.60;99.90;;;;;;5053735;28;20670;-57
2022/05/01 11:05:03;;;;;;;16.80;12.00;;;14.50;99.90;;;;;;5054333;28;20131;-58
2022/05/01 11:07:31;;;;;;;19.42;12.00;;;14.40;99.90;;;;;;5039952;28;20041;-58
2022/05/01 11:10:00;;;;;;;13.77;10.88;;;14.30;99.90;;;;;;5033465;28;20507;-58
2022/05/01 11:12:29;;;;;;;16.25;12.48;;;14.30;99.90;;;;;;5047755;28;20054;-58
2022/05/01 11:14:59;;;;;;;17.92;11.23;;;14.20;99.90;;;;;;5053678;28;20055;-58
2022/05/01 11:17:50;;;;;;;14.07;11.98;;;14.00;99.90;;;;;;5046495;28;20622;-57
2022/05/01 11:20:21;;;;;;;17.20;12.65;;;14.10;99.90;;;;;;5053328;28;20055;-57
2022/05/01 11:22:48;;;;;;;17.38;11.77;;;14.50;99.90;;;;;;5053441;28;20040;-57
2022/05/01 11:25:37;;;;;;;15.25;11.45;;;14.90;99.90;;;;;;5050093;28;20041;-57
2022/05/01 11:28:04;;;;;;;12.65;10.90;;;15.40;99.90;;;;;;5039314;28;20048;-56
2022/05/01 11:30:31;;;;;;;14.05;11.13;;;16.00;99.90;;;;;;5052960;28;20040;-58
2022/05/01 11:33:10;;;;;;;11.02;9.82;;;16.50;99.90;;;;;;5053147;28;20056;-57
2022/05/01 11:35:58;;;;;;;13.00;10.35;;;16.80;99.90;;;;;;5053622;28;20044;-58
2022/05/01 11:38:39;;;;;;;14.35;8.98;;;17.10;99.90;;;;;;5052348;28;20048;-56
2022/05/01 11:41:07;;;;;;;13.10;10.65;;;17.50;99.90;;;;;;5020715;28;20045;-55
2022/05/01 11:43:35;;;;;;;13.75;9.45;;;17.70;98.20;;;;;;5033960;28;20041;-58
2022/05/01 11:46:04;;;;;;;15.52;9.23;;;17.60;95.80;;;;;;5034050;28;20792;-56
2022/05/01 11:48:34;;;;;;;10.38;8.55;;;17.40;95.60;;;;;;5032000;28;20099;-57
2022/05/01 11:51:01;;;;;;;8.98;8.07;;;17.20;95.20;;;;;;5033281;28;20595;-57
2022/05/01 11:53:32;;;;;;;11.80;9.77;;;16.90;95.50;;;;;;5032860;28;20045;-59
2022/05/01 12:04:34;;;;;;;9.35;7.88;;;15.90;96.00;;;;;;5033306;28;20045;-57
2022/05/01 12:07:15;;;;;;;10.73;8.05;;;15.70;97.60;;;;;;5041311;28;20097;-58
2022/05/01 12:09:44;;;;;;;13.07;7.82;;;15.50;97.30;;;;;;5052901;28;20060;-59
2022/05/01 12:12:14;;;;;;;8.77;7.00;;;15.30;99.30;;;;;;5040346;28;20062;-58
2022/05/01 12:14:42;;;;;;;10.07;7.55;;;15.20;99.50;;;;;;5015383;28;20102;-57
2022/05/01 12:17:14;;;;;;;10.10;7.47;;;15.20;99.90;;;;;;5038044;28;20095;-58
2022/05/01 12:19:43;;;;;;;8.77;7.88;;;15.10;99.30;;;;;;5033228;28;20049;-58
2022/05/01 12:22:13;;;;;;;8.75;6.82;;;15.00;99.60;;;;;;5015582;28;20660;-57
2022/05/01 12:24:40;;;;;;;12.40;9.02;;;15.00;99.60;;;;;;5015508;28;20124;-59
2022/05/01 12:27:08;;;;;;;11.98;7.35;;;15.00;98.30;;;;;;5036916;28;20044;-58
2022/05/01 12:29:36;;;;;;;10.65;8.23;;;15.00;99.50;;;;;;5037074;28;20049;-57
2022/05/01 12:32:08;;;;;;;8.73;7.43;;;15.20;99.60;;;;;;5036343;28;20048;-58
2022/05/01 12:34:56;;;;;;;8.98;7.55;;;15.30;99.80;;;;;;5037158;28;20087;-57
2022/05/01 12:37:27;;;;;;;8.60;7.00;;;15.40;98.10;;;;;;5017458;28;20898;-58
2022/05/01 12:40:07;;;;;;;11.32;7.72;;;15.30;97.70;;;;;;5039626;28;20099;-57
2022/05/01 12:45:46;;;;;;;9.13;5.97;;;15.10;98.70;;;;;;5057343;28;20101;-59
2022/05/01 12:48:14;;;;;;;8.35;7.43;;;15.00;98.30;;;;;;5037063;28;20055;-59
2022/05/01 12:50:43;;;;;;;10.95;7.53;;;14.90;97.60;;;;;;5056197;28;20048;-59
2022/05/01 12:53:27;;;;;;;7.65;6.35;;;14.70;98.50;;;;;;5056495;28;20048;-57
2022/05/01 12:56:02;;;;;;;10.30;7.40;;;14.70;98.80;;;;;;5056350;28;20852;-58
2022/05/01 12:58:33;;;;;;;11.60;6.45;;;14.60;97.10;;;;;;5055804;28;20036;-58
2022/05/01 13:01:04;;;;;;;8.50;7.47;;;14.50;98.10;;;;;;5055704;28;20044;-57
2022/05/01 13:03:39;;;;;;;15.80;7.65;;;14.40;97.80;;;;;;5056238;28;20051;-59
2022/05/01 13:06:14;;;;;;;9.63;7.20;;;14.40;98.50;;;;;;5054438;28;20152;-59
2022/05/01 13:09:04;;;;;;;12.45;6.70;;;14.40;99.90;;;;;;5035546;28;20041;-58
2022/05/01 13:11:33;;;;;;;9.57;6.40;;;14.70;98.80;;;;;;5031799;28;20064;-60
2022/05/01 13:14:03;;;;;;;8.52;5.30;;;15.10;98.30;;;;;;5056435;28;20403;-59
2022/05/01 13:16:30;;;;;;;10.43;7.10;;;15.30;97.50;;;;;;5049148;28;20049;-57
2022/05/01 13:18:58;;;;;;;;;;;15.70;96.30;;;;;;5055797;28;20044;-58
2022/05/01 13:21:27;;;;;;;11.68;6.95;;;15.80;96.30;;;;;;5055947;28;19930;-58
2022/05/01 13:24:03;;;;;;;7.90;6.65;;;15.90;94.80;;;;;;5055592;28;20036;-59
2022/05/01 13:26:33;;;;;;;7.00;5.75;;;16.00;95.00;;;;;;5056356;28;20055;-58
2022/05/01 13:29:01;;;;;;;7.65;5.85;;;16.10;93.00;;;;;;5032902;28;20551;-58
2022/05/01 13:31:28;;;;;;;7.78;6.35;;;16.10;92.50;;;;;;5033620;28;20064;-57
2022/05/01 13:33:54;;;;;;;;;;;16.00;91.80;;;;;;5036395;28;20056;-58
2022/05/01 13:36:21;;;;;;;10.18;6.10;;;15.90;92.30;;;;;;5035542;28;19924;-58
2022/05/01 13:38:48;;;;;;;6.82;5.57;;;15.70;92.80;;;;;;5032246;28;20041;-57